createdAt,value
2018-06-02T00:01:31.122Z,101391.64
2018-06-02T00:04:01.462Z,101386.66
2018-06-02T00:06:33.173Z,101383.98
2018-06-02T00:09:22.736Z,101385.52
2018-06-02T00:14:42.429Z,101384.36
2018-06-02T00:17:14.660Z,101378.80
2018-06-02T00:19:45.231Z,101381.31
2018-06-02T00:22:15.750Z,101388.36
2018-06-02T00:24:46.556Z,101389.69
2018-06-02T00:27:19.854Z,101389.41
2018-06-02T00:29:57.326Z,101381.70
2018-06-02T00:32:29.103Z,101384.54
2018-06-02T00:35:00.437Z,101392.50
2018-06-02T00:37:42.092Z,101388.12
2018-06-02T00:40:12.996Z,101391.55
2018-06-02T00:42:43.771Z,101382.77
2018-06-02T00:47:54.716Z,101390.08
2018-06-02T00:50:27.835Z,101390.28
2018-06-02T00:52:58.293Z,101392.16
2018-06-02T00:55:28.860Z,101396.31
2018-06-02T00:58:03.362Z,101392.69
2018-06-02T01:00:36.488Z,101392.85
2018-06-02T01:03:07.884Z,101381.09
2018-06-02T01:05:38.385Z,101386.94
2018-06-02T01:08:17.443Z,101384.92
2018-06-02T01:10:48.260Z,101387.62
2018-06-02T01:13:18.783Z,101385.56
2018-06-02T01:15:49.645Z,101383.88
2018-06-02T01:18:20.057Z,101381.97
2018-06-02T01:20:50.769Z,101379.02
2018-06-02T01:23:21.218Z,101374.08
2018-06-02T01:25:51.945Z,101377.06
2018-06-02T01:28:22.458Z,101382.38
2018-06-02T01:30:53.139Z,101380.59
2018-06-02T01:33:24.037Z,101378.43
2018-06-02T01:35:54.870Z,101375.22
2018-06-02T01:38:25.231Z,101370.92
2018-06-02T01:40:56.290Z,101375.30
2018-06-02T01:43:27.197Z,101364.84
2018-06-02T01:45:58.202Z,101367.93
2018-06-02T01:48:29.271Z,101367.70
2018-06-02T01:50:59.957Z,101361.01
2018-06-02T01:53:30.881Z,101362.95
2018-06-02T01:56:01.325Z,101371.98
2018-06-02T01:58:31.975Z,101363.64
2018-06-02T02:01:03.078Z,101365.84
2018-06-02T02:03:33.493Z,101364.95
2018-06-02T02:06:04.504Z,101353.97
2018-06-02T02:08:35.786Z,101366.90
2018-06-02T02:11:06.717Z,101365.04
2018-06-02T02:13:38.646Z,101364.32
2018-06-02T02:16:10.415Z,101366.30
2018-06-02T02:18:42.030Z,101364.86
2018-06-02T02:21:13.177Z,101358.91
2018-06-02T02:23:43.596Z,101359.41
2018-06-02T02:26:22.821Z,101361.02
2018-06-02T02:28:53.171Z,101365.02
2018-06-02T02:31:24.002Z,101364.14
2018-06-02T02:33:54.629Z,101365.73
2018-06-02T02:36:25.157Z,101371.10
2018-06-02T02:38:55.512Z,101365.16
2018-06-02T02:41:26.266Z,101372.20
2018-06-02T02:43:56.710Z,101368.45
2018-06-02T02:46:28.172Z,101367.31
2018-06-02T02:48:58.884Z,101370.94
2018-06-02T02:51:29.724Z,101377.45
2018-06-02T02:54:00.291Z,101377.31
2018-06-02T02:56:31.477Z,101375.09
2018-06-02T02:59:02.126Z,101371.84
2018-06-02T03:01:33.698Z,101375.42
2018-06-02T03:04:05.022Z,101356.95
2018-06-02T03:06:36.878Z,101379.73
2018-06-02T03:09:08.656Z,101383.39
2018-06-02T03:11:39.451Z,101380.82
2018-06-02T03:14:10.802Z,101369.18
2018-06-02T03:16:42.449Z,101364.14
2018-06-02T03:19:13.219Z,101371.91
2018-06-02T03:21:44.698Z,101367.52
2018-06-02T03:24:15.949Z,101372.34
2018-06-02T03:26:47.847Z,101365.55
2018-06-02T03:29:18.825Z,101365.75
2018-06-02T03:31:49.970Z,101366.59
2018-06-02T03:34:20.770Z,101368.45
2018-06-02T03:36:51.563Z,101368.36
2018-06-02T03:39:22.732Z,101367.39
2018-06-02T03:41:53.159Z,101363.14
2018-06-02T03:44:23.681Z,101369.30
2018-06-02T03:46:54.209Z,101372.94
2018-06-02T03:49:24.758Z,101365.13
2018-06-02T03:51:55.551Z,101370.90
2018-06-02T03:54:26.097Z,101380.37
2018-06-02T03:56:56.545Z,101376.26
2018-06-02T03:59:27.283Z,101375.91
2018-06-02T04:01:58.056Z,101377.43
2018-06-02T04:04:28.450Z,101377.22
2018-06-02T04:06:59.971Z,101381.56
2018-06-02T04:09:33.810Z,101379.50
2018-06-02T04:12:06.022Z,101380.72
2018-06-02T04:14:36.809Z,101382.13
2018-06-02T04:17:07.434Z,101382.84
2018-06-02T04:19:38.978Z,101387.19
2018-06-02T04:22:10.130Z,101388.55
2018-06-02T04:24:46.377Z,101388.34
2018-06-02T04:27:20.216Z,101390.31
2018-06-02T04:29:52.634Z,101390.78
2018-06-02T04:32:23.382Z,101392.14
2018-06-02T04:34:55.047Z,101391.38
2018-06-02T04:37:25.842Z,101390.42
2018-06-02T04:39:56.189Z,101388.08
2018-06-02T04:42:26.983Z,101388.41
2018-06-02T04:44:57.472Z,101386.94
2018-06-02T04:47:28.079Z,101392.09
2018-06-02T04:49:58.868Z,101391.80
2018-06-02T04:52:29.535Z,101393.19
2018-06-02T04:55:02.140Z,101390.01
2018-06-02T04:57:33.073Z,101391.91
2018-06-02T05:00:05.141Z,101397.14
2018-06-02T05:02:36.048Z,101401.16
2018-06-02T05:05:06.959Z,101398.92
2018-06-02T05:07:37.511Z,101403.56
2018-06-02T05:10:07.964Z,101407.38
2018-06-02T05:12:40.447Z,101411.91
2018-06-02T05:15:17.174Z,101413.23
2018-06-02T05:17:48.069Z,101416.72
2018-06-02T05:20:19.771Z,101424.46
2018-06-02T05:23:05.525Z,101412.84
2018-06-02T05:25:36.554Z,101423.73
2018-06-02T05:28:07.166Z,101422.98
2018-06-02T05:30:39.799Z,101426.11
2018-06-02T05:33:12.242Z,101427.60
2018-06-02T05:35:45.397Z,101438.34
2018-06-02T05:38:16.672Z,101431.52
2018-06-02T05:40:58.489Z,101436.07
2018-06-02T05:43:30.411Z,101426.78
2018-06-02T05:46:01.321Z,101432.66
2018-06-02T05:48:36.799Z,101432.84
2018-06-02T05:51:07.999Z,101428.82
2018-06-02T05:53:39.777Z,101430.52
2018-06-02T05:56:12.161Z,101431.23
2018-06-02T05:58:43.771Z,101432.77
2018-06-02T06:01:17.700Z,101426.69
2018-06-02T06:03:49.092Z,101440.47
2018-06-02T06:06:30.868Z,101438.23
2018-06-02T06:09:02.283Z,101433.48
2018-06-02T06:11:35.993Z,101438.91
2018-06-02T06:14:06.916Z,101433.30
2018-06-02T06:16:37.654Z,101440.98
2018-06-02T06:19:08.488Z,101435.92
2018-06-02T06:21:40.673Z,101433.58
2018-06-02T06:24:11.754Z,101435.05
2018-06-02T06:26:42.770Z,101432.38
2018-06-02T06:32:01.814Z,101438.80
2018-06-02T06:34:34.178Z,101439.59
2018-06-02T06:37:07.013Z,101444.90
2018-06-02T06:39:39.395Z,101439.34
2018-06-02T06:42:10.433Z,101440.87
2018-06-02T06:44:42.217Z,101447.30
2018-06-02T06:47:13.460Z,101442.12
2018-06-02T06:49:44.295Z,101448.94
2018-06-02T06:52:19.846Z,101422.02
2018-06-02T06:55:04.124Z,101442.61
2018-06-02T07:00:21.149Z,101419.17
2018-06-02T07:02:55.238Z,101433.52
2018-06-02T07:05:26.892Z,101436.59
2018-06-02T07:10:39.241Z,101443.53
2018-06-02T07:13:10.116Z,101445.94
2018-06-02T07:15:45.492Z,101443.91
2018-06-02T07:18:23.296Z,101443.55
2018-06-02T07:20:57.275Z,101448.74
2018-06-02T07:23:29.049Z,101453.09
2018-06-02T07:26:01.164Z,101451.55
2018-06-02T07:28:33.787Z,101455.02
2018-06-02T07:31:06.211Z,101461.63
2018-06-02T07:33:45.713Z,101461.22
2018-06-02T07:36:16.365Z,101448.20
2018-06-02T07:38:49.243Z,101456.37
2018-06-02T07:46:42.976Z,101460.37
2018-06-02T07:49:14.689Z,101457.07
2018-06-02T07:51:46.485Z,101456.14
2018-06-02T07:54:17.550Z,101455.77
2018-06-02T07:56:48.802Z,101452.22
2018-06-02T07:59:27.952Z,101455.51
2018-06-02T08:02:00.448Z,101456.06
2018-06-02T08:04:34.949Z,101459.04
2018-06-02T08:07:20.547Z,101453.15
2018-06-02T08:10:05.397Z,101454.41
2018-06-02T08:12:46.733Z,101442.83
2018-06-02T08:15:20.107Z,101458.59
2018-06-02T08:17:53.759Z,101440.42
2018-06-02T08:20:32.903Z,101467.27
2018-06-02T08:25:57.160Z,101464.69
2018-06-02T08:28:30.732Z,101459.88
2018-06-02T08:31:33.169Z,101468.52
2018-06-02T08:36:30.340Z,101465.44
2018-06-02T08:39:02.380Z,101460.76
2018-06-02T08:41:35.474Z,101457.93
2018-06-02T08:44:07.991Z,101463.35
2018-06-02T08:46:39.949Z,101465.67
2018-06-02T08:49:10.885Z,101467.13
2018-06-02T08:54:17.158Z,101476.53
2018-06-02T08:56:51.127Z,101473.37
2018-06-02T08:59:24.435Z,101476.63
2018-06-02T09:01:58.015Z,101476.50
2018-06-02T09:04:50.472Z,101471.20
2018-06-02T09:07:28.404Z,101474.74
2018-06-02T09:10:02.560Z,101475.33
2018-06-02T09:12:33.450Z,101487.77
2018-06-02T09:15:07.505Z,101480.44
2018-06-02T09:17:46.708Z,101478.00
2018-06-02T09:20:23.199Z,101483.88
2018-06-02T09:22:56.047Z,101491.58
2018-06-02T09:25:30.358Z,101480.33
2018-06-02T09:28:01.998Z,101481.87
2018-06-02T09:30:41.495Z,101484.77
2018-06-02T09:33:23.660Z,101485.16
2018-06-02T09:35:56.118Z,101478.90
2018-06-02T09:41:17.054Z,101483.95
2018-06-02T09:43:50.233Z,101487.75
2018-06-02T09:46:36.667Z,101484.98
2018-06-02T09:49:11.566Z,101484.62
2018-06-02T09:51:49.758Z,101494.56
2018-06-02T09:54:43.866Z,101487.53
2018-06-02T09:57:20.990Z,101486.21
2018-06-02T09:59:54.173Z,101483.09
2018-06-02T10:02:25.621Z,101485.72
2018-06-02T10:04:59.122Z,101483.36
2018-06-02T10:07:41.659Z,101484.70
2018-06-02T10:10:12.902Z,101486.09
2018-06-02T10:12:45.328Z,101486.98
2018-06-02T10:15:19.573Z,101483.48
2018-06-02T10:17:51.103Z,101480.94
2018-06-02T10:20:22.683Z,101482.72
2018-06-02T10:22:54.210Z,101467.20
2018-06-02T10:25:25.847Z,101477.48
2018-06-02T10:27:56.349Z,101487.44
2018-06-02T10:30:27.928Z,101480.33
2018-06-02T10:32:59.922Z,101483.38
2018-06-02T10:35:31.633Z,101478.64
2018-06-02T10:38:05.659Z,101483.45
2018-06-02T10:40:39.965Z,101480.31
2018-06-02T10:43:11.934Z,101477.00
2018-06-02T10:45:45.862Z,101474.94
2018-06-02T10:48:16.554Z,101470.80
2018-06-02T10:50:48.553Z,101471.63
2018-06-02T10:53:20.426Z,101477.18
2018-06-02T10:55:52.726Z,101483.21
2018-06-02T10:58:29.542Z,101476.80
2018-06-02T11:01:00.691Z,101478.42
2018-06-02T11:03:32.344Z,101482.45
2018-06-02T11:06:03.989Z,101481.20
2018-06-02T11:08:36.530Z,101475.95
2018-06-02T11:11:10.479Z,101479.00
2018-06-02T11:16:44.716Z,101476.98
2018-06-02T11:19:16.726Z,101479.62
2018-06-02T11:21:48.351Z,101458.82
2018-06-02T11:24:25.953Z,101476.03
2018-06-02T11:26:57.172Z,101476.56
2018-06-02T11:29:41.890Z,101479.44
2018-06-02T11:32:28.139Z,101482.42
2018-06-02T11:35:00.538Z,101482.74
2018-06-02T11:37:31.364Z,101488.42
2018-06-02T11:40:03.116Z,101480.45
2018-06-02T11:42:34.503Z,101484.01
2018-06-02T11:45:13.173Z,101473.69
2018-06-02T11:47:45.908Z,101476.44
2018-06-02T11:50:19.126Z,101473.84
2018-06-02T11:52:50.813Z,101465.52
2018-06-02T11:55:26.973Z,101471.55
2018-06-02T11:58:12.953Z,101472.14
2018-06-02T12:00:49.658Z,101466.53
2018-06-02T12:03:25.233Z,101462.80
2018-06-02T12:05:56.222Z,101458.77
2018-06-02T12:08:28.687Z,101459.20
2018-06-02T12:10:59.277Z,101464.42
2018-06-02T12:13:48.496Z,101452.27
2018-06-02T12:16:32.018Z,101437.66
2018-06-02T12:19:03.491Z,101451.15
2018-06-02T12:21:33.845Z,101451.38
2018-06-02T12:24:05.993Z,101455.66
2018-06-02T12:26:37.107Z,101443.17
2018-06-02T12:29:08.793Z,101445.00
2018-06-02T12:31:44.750Z,101436.77
2018-06-02T12:34:17.669Z,101434.43
2018-06-02T12:36:50.321Z,101434.63
2018-06-02T12:39:22.622Z,101422.66
2018-06-02T12:44:37.851Z,101429.95
2018-06-02T12:47:09.144Z,101437.80
2018-06-02T12:49:42.359Z,101424.83
2018-06-02T12:52:13.478Z,101440.83
2018-06-02T12:54:46.171Z,101435.35
2018-06-02T12:57:20.330Z,101441.23
2018-06-02T12:59:53.864Z,101438.99
2018-06-02T13:02:34.411Z,101445.76
2018-06-02T13:05:09.187Z,101438.84
2018-06-02T13:07:41.694Z,101442.36
2018-06-02T13:10:17.985Z,101447.03
2018-06-02T13:12:49.107Z,101448.83
2018-06-02T13:15:23.600Z,101450.53
2018-06-02T13:17:54.361Z,101446.18
2018-06-02T13:22:56.933Z,101444.27
2018-06-02T13:25:29.570Z,101434.17
2018-06-02T13:28:06.344Z,101439.22
2018-06-02T13:30:53.646Z,101440.73
2018-06-02T13:33:25.133Z,101441.77
2018-06-02T13:35:56.361Z,101443.37
2018-06-02T13:38:28.703Z,101434.56
2018-06-02T13:41:02.100Z,101436.75
2018-06-02T13:43:34.863Z,101427.33
2018-06-02T13:46:06.269Z,101435.81
2018-06-02T13:48:37.538Z,101420.27
2018-06-02T13:51:14.902Z,101431.20
2018-06-02T13:53:46.394Z,101430.56
2018-06-02T13:56:24.810Z,101429.41
2018-06-02T13:59:26.061Z,101428.08
2018-06-02T14:02:17.021Z,101423.16
2018-06-02T14:04:58.995Z,101406.05
2018-06-02T14:07:40.018Z,101418.42
2018-06-02T14:10:34.572Z,101414.67
2018-06-02T14:13:11.196Z,101418.97
2018-06-02T14:15:52.639Z,101416.60
2018-06-02T14:18:31.705Z,101412.42
2018-06-02T14:21:20.191Z,101418.25
2018-06-02T14:24:20.820Z,101411.77
2018-06-02T14:26:59.044Z,101405.14
2018-06-02T14:29:33.438Z,101397.38
2018-06-02T14:32:13.308Z,101397.23
2018-06-02T14:34:59.152Z,101386.08
2018-06-02T14:37:35.165Z,101401.34
2018-06-02T14:40:15.397Z,101408.66
2018-06-02T14:42:48.831Z,101396.78
2018-06-02T14:45:23.974Z,101404.34
2018-06-02T14:47:58.444Z,101403.59
2018-06-02T14:50:41.015Z,101408.38
2018-06-02T14:53:20.064Z,101402.44
2018-06-02T14:55:57.527Z,101401.13
2018-06-02T14:58:32.642Z,101397.19
2018-06-02T15:01:15.473Z,101404.58
2018-06-02T15:03:56.166Z,101405.80
2018-06-02T15:06:29.866Z,101408.05
2018-06-02T15:09:06.951Z,101402.80
2018-06-02T15:11:42.845Z,101393.11
2018-06-02T15:17:42.236Z,101388.84
2018-06-02T15:20:25.380Z,101388.28
2018-06-02T15:23:01.300Z,101395.24
2018-06-02T15:25:36.790Z,101388.59
2018-06-02T15:28:13.474Z,101382.09
2018-06-02T15:30:46.816Z,101395.30
2018-06-02T15:33:24.884Z,101393.16
2018-06-02T15:35:56.269Z,101389.87
2018-06-02T15:38:32.769Z,101394.46
2018-06-02T15:41:07.067Z,101386.16
2018-06-02T15:43:37.694Z,101389.28
2018-06-02T15:46:12.355Z,101391.97
2018-06-02T15:48:55.496Z,101389.81
2018-06-02T15:51:35.892Z,101383.56
2018-06-02T15:54:08.269Z,101386.61
2018-06-02T15:56:41.177Z,101381.72
2018-06-02T15:59:16.538Z,101380.72
2018-06-02T16:01:59.828Z,101388.31
2018-06-02T16:04:51.329Z,101379.26
2018-06-02T16:07:25.468Z,101383.47
2018-06-02T16:09:57.782Z,101383.78
2018-06-02T16:12:32.525Z,101385.09
2018-06-02T16:15:06.289Z,101386.74
2018-06-02T16:17:39.992Z,101396.57
2018-06-02T16:20:11.279Z,101386.64
2018-06-02T16:22:41.670Z,101389.21
2018-06-02T16:25:17.120Z,101389.09
2018-06-02T16:28:15.797Z,101383.77
2018-06-02T16:30:52.217Z,101390.39
2018-06-02T16:33:27.401Z,101394.00
2018-06-02T16:36:03.667Z,101395.11
2018-06-02T16:38:36.652Z,101392.17
2018-06-02T16:41:11.744Z,101388.70
2018-06-02T16:43:44.514Z,101391.98
2018-06-02T16:46:17.486Z,101384.62
2018-06-02T16:48:53.618Z,101392.58
2018-06-02T16:51:28.657Z,101380.20
2018-06-02T16:54:01.742Z,101384.98
2018-06-02T16:56:48.654Z,101387.41
2018-06-02T16:59:35.631Z,101388.43
2018-06-02T17:02:09.500Z,101392.97
2018-06-02T17:04:41.172Z,101387.83
2018-06-02T17:07:12.787Z,101389.97
2018-06-02T17:09:44.307Z,101381.88
2018-06-02T17:12:19.817Z,101387.45
2018-06-02T17:15:03.265Z,101384.88
2018-06-02T17:17:39.228Z,101381.63
2018-06-02T17:20:18.191Z,101383.77
2018-06-02T17:22:58.563Z,101388.49
2018-06-02T17:25:32.555Z,101390.67
2018-06-02T17:28:07.126Z,101387.04
2018-06-02T17:30:41.837Z,101367.77
2018-06-02T17:33:18.921Z,101394.03
2018-06-02T17:35:53.567Z,101396.08
2018-06-02T17:38:24.495Z,101382.33
2018-06-02T17:40:57.540Z,101390.48
2018-06-02T17:43:29.465Z,101390.30
2018-06-02T17:46:14.024Z,101379.87
2018-06-02T17:48:47.568Z,101379.31
2018-06-02T17:51:19.121Z,101382.38
2018-06-02T17:53:50.269Z,101377.17
2018-06-02T17:56:40.948Z,101379.70
2018-06-02T17:59:16.375Z,101371.94
2018-06-02T18:01:50.965Z,101369.33
2018-06-02T18:04:21.606Z,101361.38
2018-06-02T18:07:09.780Z,101367.00
2018-06-02T18:09:41.158Z,101366.80
2018-06-02T18:12:12.394Z,101367.12
2018-06-02T18:15:29.773Z,101332.56
2018-06-02T18:18:02.163Z,101369.52
2018-06-02T18:20:49.964Z,101373.28
2018-06-02T18:23:37.028Z,101369.70
2018-06-02T18:26:13.320Z,101376.30
2018-06-02T18:28:47.330Z,101379.56
2018-06-02T18:31:22.793Z,101381.31
2018-06-02T18:33:56.737Z,101375.58
2018-06-02T18:36:33.081Z,101370.44
2018-06-02T18:39:12.385Z,101376.41
2018-06-02T18:42:05.650Z,101373.69
2018-06-02T18:44:56.690Z,101368.12
2018-06-02T18:47:29.750Z,101373.47
2018-06-02T18:50:13.524Z,101376.48
2018-06-02T18:52:45.319Z,101372.20
2018-06-02T18:55:33.372Z,101375.78
2018-06-02T18:58:06.817Z,101369.50
2018-06-02T19:00:50.643Z,101372.33
2018-06-02T19:03:38.490Z,101315.72
2018-06-02T19:06:13.040Z,101368.12
2018-06-02T19:08:48.644Z,101372.53
2018-06-02T19:11:25.666Z,101368.02
2018-06-02T19:13:59.244Z,101363.72
2018-06-02T19:16:41.726Z,101371.77
2018-06-02T19:19:17.016Z,101371.91
2018-06-02T19:21:49.122Z,101362.78
2018-06-02T19:24:27.648Z,101372.36
2018-06-02T19:27:01.860Z,101371.95
2018-06-02T19:29:34.186Z,101360.30
2018-06-02T19:32:13.607Z,101366.95
2018-06-02T19:34:46.555Z,101375.01
2018-06-02T19:37:22.345Z,101376.34
2018-06-02T19:39:57.580Z,101380.84
2018-06-02T19:42:31.078Z,101388.20
2018-06-02T19:45:47.356Z,101395.64
2018-06-02T19:48:25.716Z,101385.16
2018-06-02T19:51:02.155Z,101396.58
2018-06-02T19:53:42.339Z,101399.65
2018-06-02T19:56:16.104Z,101397.62
2018-06-02T19:58:54.396Z,101398.98
2018-06-02T20:01:29.064Z,101405.34
2018-06-02T20:06:48.693Z,101402.11
2018-06-02T20:09:23.662Z,101413.89
2018-06-02T20:12:08.128Z,101412.44
2018-06-02T20:14:40.960Z,101410.56
2018-06-02T20:17:18.422Z,101412.44
2018-06-02T20:20:05.794Z,101415.77
2018-06-02T20:22:46.661Z,101414.92
2018-06-02T20:25:28.221Z,101418.97
2018-06-02T20:28:26.267Z,101424.02
2018-06-02T20:31:52.201Z,101429.27
2018-06-02T20:34:29.868Z,101432.88
2018-06-02T20:37:10.829Z,101436.31
2018-06-02T20:50:04.559Z,101376.50
2018-06-02T20:52:41.003Z,101435.84
2018-06-02T20:55:13.906Z,101429.66
2018-06-02T20:57:58.131Z,101439.50
2018-06-02T21:00:46.814Z,101439.12
2018-06-02T21:03:30.729Z,101436.82
2018-06-02T21:06:07.001Z,101437.61
2018-06-02T21:08:39.915Z,101449.36
2018-06-02T21:11:39.053Z,101448.20
2018-06-02T21:14:15.163Z,101449.59
2018-06-02T21:16:47.073Z,101449.46
2018-06-02T21:19:20.658Z,101457.19
2018-06-02T21:22:11.088Z,101449.46
2018-06-02T21:24:53.118Z,101453.53
2018-06-02T21:27:54.078Z,101459.31
2018-06-02T21:30:42.933Z,101456.03
2018-06-02T21:33:29.226Z,101460.36
2018-06-02T21:36:11.675Z,101462.38
2018-06-02T21:38:44.531Z,101464.55
2018-06-02T21:41:17.268Z,101466.42
2018-06-02T21:43:55.918Z,101468.95
2018-06-02T21:46:34.417Z,101445.84
2018-06-02T21:49:13.363Z,101436.20
2018-06-02T21:52:05.545Z,101469.98
2018-06-02T21:54:51.293Z,101474.33
2018-06-02T21:57:22.243Z,101458.53
2018-06-02T22:00:09.169Z,101442.06
2018-06-02T22:02:46.779Z,101473.77
2018-06-02T22:05:20.364Z,101478.90
2018-06-02T22:07:55.750Z,101466.16
2018-06-02T22:10:33.666Z,101485.18
2018-06-02T22:13:13.582Z,101488.41
2018-06-02T22:15:45.926Z,101487.73
2018-06-02T22:18:21.194Z,101481.80
2018-06-02T22:21:18.964Z,101467.48
2018-06-02T22:23:57.721Z,101483.92
2018-06-02T22:26:37.668Z,101476.77
2018-06-02T22:29:21.366Z,101484.77
2018-06-02T22:31:52.574Z,101487.48
2018-06-02T22:34:36.248Z,101488.19
2018-06-02T22:37:13.045Z,101482.67
2018-06-02T22:39:51.883Z,101482.66
2018-06-02T22:42:23.457Z,101486.12
2018-06-02T22:44:56.530Z,101480.28
2018-06-02T22:47:35.820Z,101488.41
2018-06-02T22:50:11.584Z,101488.88
2018-06-02T22:52:51.636Z,101488.35
2018-06-02T22:55:23.992Z,101489.45
2018-06-02T22:57:57.737Z,101494.30
2018-06-02T23:00:35.685Z,101479.02
2018-06-02T23:06:19.095Z,101503.23
2018-06-02T23:08:58.106Z,101505.91
2018-06-02T23:11:33.185Z,101491.66
2018-06-02T23:14:17.323Z,101502.34
2018-06-02T23:17:03.014Z,101497.09
2018-06-02T23:19:56.195Z,101493.16
2018-06-02T23:22:40.135Z,101504.14
2018-06-02T23:25:11.553Z,101500.73
2018-06-02T23:27:55.977Z,101500.11
2018-06-02T23:30:30.388Z,101499.28
2018-06-02T23:38:41.694Z,101508.20
2018-06-02T23:41:12.786Z,101503.02
2018-06-02T23:43:43.305Z,101501.81
2018-06-02T23:46:15.107Z,101491.23
2018-06-02T23:48:46.349Z,101508.80
2018-06-02T23:51:19.207Z,101507.95
2018-06-02T23:53:50.745Z,101497.34
2018-06-02T23:56:21.471Z,101505.83
2018-06-02T23:58:51.943Z,101506.35
